createdAt,value
2019-05-13T00:02:30.053Z,50.12
2019-05-13T00:05:01.107Z,50.28
2019-05-13T00:07:34.219Z,50.38
2019-05-13T00:10:06.162Z,50.42
2019-05-13T00:12:37.238Z,50.71
2019-05-13T00:15:08.544Z,50.93
2019-05-13T00:17:39.543Z,50.83
2019-05-13T00:20:10.994Z,50.78
2019-05-13T00:22:44.360Z,50.68
2019-05-13T00:25:15.176Z,50.93
2019-05-13T00:27:46.198Z,51.02
2019-05-13T00:30:18.891Z,51.10
2019-05-13T00:32:50.706Z,51.44
2019-05-13T00:35:23.296Z,51.51
2019-05-13T00:37:54.429Z,51.56
2019-05-13T00:40:25.456Z,51.58
2019-05-13T00:42:56.455Z,51.78
2019-05-13T00:45:27.467Z,52.01
2019-05-13T00:47:58.501Z,51.74
2019-05-13T00:50:29.529Z,52.15
2019-05-13T00:53:00.602Z,52.23
2019-05-13T00:55:34.064Z,52.12
2019-05-13T00:58:04.667Z,52.27
2019-05-13T01:00:35.890Z,52.32
2019-05-13T01:03:06.965Z,52.48
2019-05-13T01:05:37.953Z,52.51
2019-05-13T01:08:08.944Z,52.53
2019-05-13T01:10:39.965Z,52.39
2019-05-13T01:13:13.111Z,52.12
2019-05-13T01:15:44.331Z,52.24
2019-05-13T01:18:15.536Z,52.56
2019-05-13T01:20:46.593Z,52.31
2019-05-13T01:23:17.693Z,52.50
2019-05-13T01:25:48.783Z,52.62
2019-05-13T01:28:20.873Z,52.30
2019-05-13T01:30:53.874Z,52.46
2019-05-13T01:33:24.574Z,52.46
2019-05-13T01:35:56.790Z,52.18
2019-05-13T01:38:27.802Z,52.63
2019-05-13T01:40:58.894Z,52.71
2019-05-13T01:43:29.957Z,52.76
2019-05-13T01:46:00.952Z,52.58
2019-05-13T01:48:33.294Z,52.69
2019-05-13T01:51:04.509Z,52.56
2019-05-13T01:53:35.553Z,52.56
2019-05-13T01:56:06.546Z,52.51
2019-05-13T01:58:37.563Z,52.97
2019-05-13T02:01:08.632Z,52.61
2019-05-13T02:03:39.632Z,52.76
2019-05-13T02:06:10.768Z,52.55
2019-05-13T02:08:43.858Z,52.73
2019-05-13T02:11:14.489Z,52.69
2019-05-13T02:13:45.566Z,52.76
2019-05-13T02:16:16.566Z,52.98
2019-05-13T02:18:47.597Z,52.93
2019-05-13T02:21:18.590Z,52.93
2019-05-13T02:23:50.834Z,53.27
2019-05-13T02:26:23.955Z,53.01
2019-05-13T02:28:54.643Z,53.24
2019-05-13T02:31:39.831Z,53.31
2019-05-13T02:33:58.502Z,53.49
2019-05-13T02:36:32.718Z,53.59
2019-05-13T02:39:02.766Z,53.71
2019-05-13T02:41:34.283Z,53.80
2019-05-13T02:44:06.446Z,53.82
2019-05-13T02:46:37.507Z,53.57
2019-05-13T02:49:08.583Z,53.85
2019-05-13T02:51:42.805Z,54.05
2019-05-13T02:54:12.735Z,54.13
2019-05-13T02:56:43.847Z,53.93
2019-05-13T02:59:14.912Z,54.19
2019-05-13T03:01:45.935Z,54.00
2019-05-13T03:04:17.502Z,54.52
2019-05-13T03:06:48.500Z,54.52
2019-05-13T03:09:22.712Z,54.47
2019-05-13T03:11:53.522Z,54.31
2019-05-13T03:14:25.895Z,54.66
2019-05-13T03:17:09.193Z,54.53
2019-05-13T03:19:42.828Z,54.38
2019-05-13T03:22:14.249Z,54.74
2019-05-13T03:24:45.242Z,54.84
2019-05-13T03:27:20.278Z,54.89
2019-05-13T03:29:49.017Z,55.07
2019-05-13T03:32:27.131Z,54.86
2019-05-13T03:34:56.243Z,54.75
2019-05-13T03:37:27.488Z,55.16
2019-05-13T03:39:59.307Z,55.24
2019-05-13T03:42:33.667Z,55.25
2019-05-13T03:45:05.759Z,55.20
2019-05-13T03:47:42.012Z,55.31
2019-05-13T03:50:12.985Z,55.29
2019-05-13T03:52:44.170Z,55.12
2019-05-13T03:55:15.582Z,55.21
2019-05-13T03:57:46.670Z,55.53
2019-05-13T04:00:17.831Z,55.28
2019-05-13T04:02:51.924Z,55.59
2019-05-13T04:05:23.299Z,55.52
2019-05-13T04:07:54.635Z,55.27
2019-05-13T04:10:25.833Z,55.37
2019-05-13T04:12:56.878Z,55.79
2019-05-13T04:15:27.889Z,55.69
2019-05-13T04:18:02.339Z,55.81
2019-05-13T04:20:33.252Z,55.96
2019-05-13T04:23:04.605Z,55.67
2019-05-13T04:25:39.561Z,55.62
2019-05-13T04:28:08.706Z,55.82
2019-05-13T04:30:43.339Z,55.93
2019-05-13T04:33:13.966Z,56.01
2019-05-13T04:35:45.225Z,55.88
2019-05-13T04:38:16.289Z,55.92
2019-05-13T04:40:47.355Z,56.11
2019-05-13T04:43:18.789Z,56.11
2019-05-13T04:45:52.404Z,56.23
2019-05-13T04:48:23.255Z,56.43
2019-05-13T04:50:54.543Z,56.41
2019-05-13T04:53:25.595Z,56.76
2019-05-13T04:55:56.793Z,56.43
2019-05-13T04:58:27.856Z,56.85
2019-05-13T05:01:47.250Z,56.77
2019-05-13T05:04:28.684Z,56.66
2019-05-13T05:07:22.216Z,57.03
2019-05-13T05:10:53.580Z,56.97
2019-05-13T05:14:12.802Z,56.63
2019-05-13T05:17:42.778Z,55.88
2019-05-13T05:20:36.726Z,56.52
2019-05-13T05:23:22.707Z,56.63
2019-05-13T05:26:42.046Z,56.14
2019-05-13T05:29:43.805Z,56.14
2019-05-13T05:32:56.118Z,56.74
2019-05-13T05:36:18.814Z,56.42
2019-05-13T05:39:24.190Z,55.94
2019-05-13T05:41:57.254Z,56.16
2019-05-13T05:44:32.397Z,56.53
2019-05-13T05:47:04.421Z,56.66
2019-05-13T05:49:37.021Z,56.17
2019-05-13T05:52:09.199Z,56.20
2019-05-13T05:54:42.246Z,55.91
2019-05-13T05:57:14.786Z,56.28
2019-05-13T05:59:45.868Z,56.11
2019-05-13T06:02:19.336Z,54.81
2019-05-13T06:04:52.781Z,54.59
2019-05-13T06:07:24.572Z,54.56
2019-05-13T06:09:55.758Z,54.78
2019-05-13T06:12:27.744Z,54.60
2019-05-13T06:15:02.425Z,54.54
2019-05-13T06:17:32.451Z,54.35
2019-05-13T06:20:04.540Z,53.51
2019-05-13T06:22:35.863Z,53.28
2019-05-13T06:25:07.285Z,51.54
2019-05-13T06:27:38.535Z,52.52
2019-05-13T06:30:12.598Z,52.45
2019-05-13T06:32:42.947Z,52.53
2019-05-13T06:35:14.841Z,52.61
2019-05-13T06:37:46.033Z,53.38
2019-05-13T06:40:17.268Z,52.51
2019-05-13T06:42:48.334Z,52.80
2019-05-13T06:45:21.660Z,53.05
2019-05-13T06:47:52.332Z,52.79
2019-05-13T06:50:23.495Z,53.59
2019-05-13T06:52:54.621Z,53.70
2019-05-13T06:55:25.609Z,53.71
2019-05-13T06:57:56.629Z,52.69
2019-05-13T07:00:27.731Z,52.71
2019-05-13T07:02:58.775Z,53.50
2019-05-13T07:05:31.788Z,52.67
2019-05-13T07:08:02.803Z,53.33
2019-05-13T07:10:33.941Z,52.70
2019-05-13T07:13:05.070Z,53.22
2019-05-13T07:15:36.180Z,52.93
2019-05-13T07:18:07.465Z,52.13
2019-05-13T07:20:38.478Z,52.96
2019-05-13T07:23:12.047Z,52.83
2019-05-13T07:25:42.522Z,52.53
2019-05-13T07:28:14.889Z,51.98
2019-05-13T07:30:47.796Z,52.27
2019-05-13T07:33:21.176Z,53.18
2019-05-13T07:35:58.097Z,52.13
2019-05-13T07:38:25.424Z,52.00
2019-05-13T07:41:04.797Z,51.11
2019-05-13T07:43:35.871Z,51.91
2019-05-13T07:46:06.933Z,51.38
2019-05-13T07:48:38.374Z,48.74
2019-05-13T07:51:11.712Z,49.16
2019-05-13T07:53:42.680Z,49.32
2019-05-13T07:56:14.939Z,49.67
2019-05-13T07:58:45.998Z,49.42
2019-05-13T08:01:17.008Z,48.88
2019-05-13T08:03:48.040Z,49.70
2019-05-13T08:06:21.768Z,49.54
2019-05-13T08:08:52.991Z,47.77
2019-05-13T08:11:24.306Z,47.78
2019-05-13T08:13:55.457Z,48.83
2019-05-13T08:16:26.490Z,48.98
2019-05-13T08:18:57.542Z,48.10
2019-05-13T08:21:28.565Z,48.39
2019-05-13T08:24:02.599Z,48.28
2019-05-13T08:26:32.535Z,48.73
2019-05-13T08:29:05.979Z,47.39
2019-05-13T08:31:36.411Z,47.95
2019-05-13T08:34:07.550Z,47.54
2019-05-13T08:36:39.604Z,47.72
2019-05-13T08:39:12.799Z,47.18
2019-05-13T08:41:43.947Z,48.29
2019-05-13T08:44:15.019Z,49.15
2019-05-13T08:46:46.316Z,48.39
2019-05-13T08:49:17.380Z,47.93
2019-05-13T08:51:48.375Z,48.10
2019-05-13T08:54:21.829Z,48.61
2019-05-13T08:56:52.437Z,47.06
2019-05-13T08:59:23.415Z,47.35
2019-05-13T09:01:54.705Z,47.96
2019-05-13T09:04:25.989Z,49.48
2019-05-13T09:06:57.171Z,48.92
2019-05-13T09:09:28.286Z,45.89
2019-05-13T09:12:02.083Z,44.88
2019-05-13T09:14:32.791Z,45.38
2019-05-13T09:17:03.811Z,44.56
2019-05-13T09:19:34.832Z,45.10
2019-05-13T09:22:06.342Z,46.20
2019-05-13T09:24:37.982Z,44.76
2019-05-13T09:27:11.877Z,45.81
2019-05-13T09:29:42.689Z,45.60
2019-05-13T09:32:15.588Z,45.01
2019-05-13T09:34:46.579Z,46.06
2019-05-13T09:37:17.660Z,45.17
2019-05-13T09:39:48.656Z,43.77
2019-05-13T09:42:21.670Z,43.61
2019-05-13T09:44:52.730Z,43.26
2019-05-13T09:47:23.873Z,43.90
2019-05-13T09:49:54.928Z,45.15
2019-05-13T09:52:26.007Z,44.96
2019-05-13T09:54:57.042Z,43.79
2019-05-13T09:57:28.041Z,42.27
2019-05-13T10:00:01.429Z,41.93
2019-05-13T10:02:32.277Z,41.92
2019-05-13T10:05:03.449Z,43.12
2019-05-13T10:07:34.593Z,42.94
2019-05-13T10:10:06.423Z,41.97
2019-05-13T10:12:37.428Z,42.39
2019-05-13T10:15:08.994Z,42.83
2019-05-13T10:17:42.770Z,42.56
2019-05-13T10:20:13.568Z,41.90
2019-05-13T10:22:44.704Z,43.50
2019-05-13T10:25:19.294Z,40.83
2019-05-13T10:27:50.543Z,43.13
2019-05-13T10:30:22.512Z,42.58
2019-05-13T10:32:53.617Z,42.54
2019-05-13T10:35:24.826Z,43.23
2019-05-13T10:37:55.971Z,41.86
2019-05-13T10:40:27.164Z,37.88
2019-05-13T10:42:58.518Z,38.24
2019-05-13T10:45:29.577Z,37.54
2019-05-13T10:48:02.866Z,38.40
2019-05-13T10:50:33.362Z,37.95
2019-05-13T10:53:05.431Z,39.49
2019-05-13T10:55:36.666Z,38.77
2019-05-13T10:58:07.827Z,36.81
2019-05-13T11:00:46.626Z,38.30
2019-05-13T11:03:18.093Z,38.38
2019-05-13T11:05:52.573Z,38.45
2019-05-13T11:08:23.320Z,37.62
2019-05-13T11:10:54.406Z,37.44
2019-05-13T11:13:25.780Z,37.49
2019-05-13T11:15:58.282Z,36.55
2019-05-13T11:18:29.859Z,37.79
2019-05-13T11:21:02.405Z,37.07
2019-05-13T11:23:33.508Z,34.81
2019-05-13T11:26:04.812Z,35.72
2019-05-13T11:28:35.890Z,37.64
2019-05-13T11:31:06.968Z,37.03
2019-05-13T11:33:38.029Z,37.13
2019-05-13T11:36:11.985Z,37.06
2019-05-13T11:38:43.332Z,36.84
2019-05-13T11:41:15.493Z,33.99
2019-05-13T11:43:46.550Z,36.13
2019-05-13T11:46:17.698Z,36.83
2019-05-13T11:48:51.698Z,35.28
2019-05-13T11:51:24.066Z,37.04
2019-05-13T11:53:55.347Z,35.11
2019-05-13T11:56:26.614Z,33.62
2019-05-13T11:58:57.760Z,34.93
2019-05-13T12:01:28.859Z,35.06
2019-05-13T12:04:02.638Z,33.33
2019-05-13T12:06:33.901Z,36.08
2019-05-13T12:09:08.028Z,37.13
2019-05-13T12:11:39.171Z,35.96
2019-05-13T12:14:37.364Z,36.44
2019-05-13T12:16:42.997Z,37.52
2019-05-13T12:19:14.119Z,34.48
2019-05-13T12:21:46.795Z,34.41
2019-05-13T12:24:18.134Z,35.99
2019-05-13T12:26:52.849Z,35.06
2019-05-13T12:29:22.530Z,35.40
2019-05-13T12:31:53.543Z,33.20
2019-05-13T12:34:25.541Z,34.04
2019-05-13T12:36:56.551Z,35.38
2019-05-13T12:39:28.602Z,33.75
2019-05-13T12:42:03.239Z,35.64
2019-05-13T12:44:32.397Z,35.58
2019-05-13T12:47:03.602Z,34.35
2019-05-13T12:49:36.691Z,33.25
2019-05-13T12:52:07.395Z,34.72
2019-05-13T12:54:38.428Z,35.38
2019-05-13T12:57:13.125Z,34.22
2019-05-13T12:59:43.538Z,34.90
2019-05-13T13:02:16.023Z,33.36
2019-05-13T13:05:08.637Z,34.84
2019-05-13T13:07:21.581Z,35.52
2019-05-13T13:09:53.710Z,35.33
2019-05-13T13:12:34.166Z,36.30
2019-05-13T13:14:57.990Z,35.61
2019-05-13T13:17:29.022Z,34.31
2019-05-13T13:22:33.235Z,34.22
2019-05-13T13:25:05.236Z,35.53
2019-05-13T13:28:03.245Z,34.10
2019-05-13T13:30:09.985Z,34.26
2019-05-13T13:32:45.141Z,33.49
2019-05-13T13:35:15.009Z,33.71
2019-05-13T13:37:46.380Z,34.18
2019-05-13T13:40:26.052Z,35.28
2019-05-13T13:42:52.957Z,34.32
2019-05-13T13:45:23.903Z,34.66
2019-05-13T13:48:03.100Z,34.42
2019-05-13T13:50:27.615Z,33.44
2019-05-13T13:52:58.624Z,34.20
2019-05-13T13:55:32.077Z,33.99
2019-05-13T13:58:02.505Z,32.37
2019-05-13T14:00:47.260Z,32.00
2019-05-13T14:03:07.472Z,33.36
2019-05-13T14:05:38.559Z,34.19
2019-05-13T14:07:13.594Z,35.01
2019-05-13T14:08:12.387Z,34.09
2019-05-13T14:10:43.450Z,32.83
2019-05-13T14:13:15.720Z,32.57
2019-05-13T14:15:46.806Z,34.34
2019-05-13T14:18:17.941Z,32.15
2019-05-13T14:20:48.952Z,33.47
2019-05-13T14:23:21.337Z,33.26
2019-05-13T14:25:53.179Z,32.35
2019-05-13T14:28:24.201Z,32.10
2019-05-13T14:30:55.382Z,33.15
2019-05-13T14:33:26.377Z,32.89
2019-05-13T14:35:57.375Z,33.51
2019-05-13T14:38:28.382Z,32.33
2019-05-13T14:41:01.609Z,33.88
2019-05-13T14:43:32.113Z,32.78
2019-05-13T14:46:03.120Z,33.12
2019-05-13T14:48:34.190Z,32.58
2019-05-13T14:51:05.644Z,32.40
2019-05-13T14:53:36.662Z,32.00
2019-05-13T14:56:07.662Z,32.13
2019-05-13T14:58:41.659Z,32.94
2019-05-13T15:01:18.456Z,33.01
2019-05-13T15:03:44.180Z,32.89
2019-05-13T15:06:16.207Z,32.93
2019-05-13T15:08:47.387Z,32.34
2019-05-13T15:11:18.384Z,32.14
2019-05-13T15:13:51.306Z,31.44
2019-05-13T15:16:22.868Z,31.74
2019-05-13T15:18:53.870Z,31.62
2019-05-13T15:21:24.896Z,31.59
2019-05-13T15:23:56.964Z,31.15
2019-05-13T15:26:28.010Z,31.16
2019-05-13T15:29:02.596Z,31.62
2019-05-13T15:31:31.822Z,31.24
2019-05-13T15:34:02.889Z,32.01
2019-05-13T15:36:33.927Z,32.14
2019-05-13T15:39:06.694Z,32.28
2019-05-13T15:41:37.856Z,31.20
2019-05-13T15:44:11.287Z,31.65
2019-05-13T15:46:41.973Z,31.15
2019-05-13T15:49:13.037Z,31.80
2019-05-13T15:51:44.062Z,30.91
2019-05-13T15:54:16.185Z,30.13
2019-05-13T15:56:47.248Z,31.32
2019-05-13T15:59:18.288Z,31.34
2019-05-13T16:01:52.275Z,31.02
2019-05-13T16:04:23.082Z,30.30
2019-05-13T16:06:54.532Z,31.21
2019-05-13T16:09:25.565Z,31.39
2019-05-13T16:11:56.866Z,31.29
2019-05-13T16:14:27.956Z,31.45
2019-05-13T16:16:58.957Z,31.54
2019-05-13T16:19:32.610Z,31.98
2019-05-13T16:22:03.272Z,31.56
2019-05-13T16:24:34.358Z,31.44
2019-05-13T16:27:05.399Z,30.19
2019-05-13T16:29:36.409Z,30.97
2019-05-13T16:32:07.685Z,30.54
2019-05-13T16:34:38.712Z,31.49
2019-05-13T16:37:11.649Z,31.78
2019-05-13T16:39:42.542Z,31.48
2019-05-13T16:42:13.617Z,32.31
2019-05-13T16:44:44.701Z,31.60
2019-05-13T16:47:16.332Z,32.48
2019-05-13T16:49:47.350Z,33.18
2019-05-13T16:52:18.437Z,31.77
2019-05-13T16:54:49.510Z,31.50
2019-05-13T16:57:20.634Z,31.66
2019-05-13T16:59:51.938Z,31.57
2019-05-13T17:02:23.137Z,32.75
2019-05-13T17:04:54.160Z,32.81
2019-05-13T17:07:25.280Z,32.61
2019-05-13T17:09:56.292Z,31.33
2019-05-13T17:12:27.388Z,32.56
2019-05-13T17:14:58.470Z,32.07
2019-05-13T17:17:31.212Z,32.72
2019-05-13T17:20:02.596Z,33.15
2019-05-13T17:22:34.644Z,33.08
2019-05-13T17:25:06.152Z,32.78
2019-05-13T17:27:37.260Z,32.64
2019-05-13T17:30:11.537Z,31.52
2019-05-13T17:32:42.971Z,32.42
2019-05-13T17:35:14.718Z,32.80
2019-05-13T17:37:45.788Z,32.90
2019-05-13T17:40:17.943Z,32.37
2019-05-13T17:42:49.085Z,31.82
2019-05-13T17:45:21.961Z,32.26
2019-05-13T17:47:53.328Z,32.63
2019-05-13T17:50:24.412Z,33.08
2019-05-13T17:52:55.410Z,33.24
2019-05-13T17:55:26.455Z,34.01
2019-05-13T17:57:57.493Z,31.91
2019-05-13T18:00:28.515Z,32.85
2019-05-13T18:03:01.849Z,33.54
2019-05-13T18:05:32.621Z,33.79
2019-05-13T18:08:04.109Z,33.35
2019-05-13T18:10:35.163Z,32.51
2019-05-13T18:13:06.612Z,32.63
2019-05-13T18:15:37.694Z,33.74
2019-05-13T18:18:08.693Z,32.91
2019-05-13T18:20:41.514Z,32.88
2019-05-13T18:23:13.795Z,33.25
2019-05-13T18:25:44.847Z,33.18
2019-05-13T18:28:27.733Z,33.52
2019-05-13T18:30:51.467Z,33.33
2019-05-13T18:33:21.989Z,32.68
2019-05-13T18:35:53.370Z,33.48
2019-05-13T18:38:24.487Z,32.71
2019-05-13T18:40:56.729Z,32.31
2019-05-13T18:43:27.786Z,32.16
2019-05-13T18:46:01.795Z,32.16
2019-05-13T18:48:32.485Z,32.76
2019-05-13T18:51:03.516Z,32.46
2019-05-13T18:53:34.628Z,32.29
2019-05-13T18:56:05.966Z,32.24
2019-05-13T18:58:36.994Z,32.02
2019-05-13T19:01:08.126Z,31.92
2019-05-13T19:03:41.319Z,32.16
2019-05-13T19:06:11.968Z,31.92
2019-05-13T19:08:42.994Z,32.13
2019-05-13T19:11:14.185Z,31.94
2019-05-13T19:13:45.282Z,32.36
2019-05-13T19:16:16.540Z,32.17
2019-05-13T19:18:47.552Z,31.99
2019-05-13T19:21:18.599Z,32.50
2019-05-13T19:23:51.282Z,32.68
2019-05-13T19:26:23.563Z,32.86
2019-05-13T19:28:54.639Z,32.33
2019-05-13T19:31:25.646Z,32.50
2019-05-13T19:33:56.720Z,33.20
2019-05-13T19:36:27.733Z,33.05
2019-05-13T19:38:58.733Z,32.70
2019-05-13T19:41:31.472Z,33.23
2019-05-13T19:44:02.578Z,32.86
2019-05-13T19:46:33.596Z,33.51
2019-05-13T19:49:04.607Z,33.63
2019-05-13T19:51:35.881Z,34.08
2019-05-13T19:54:06.859Z,33.58
2019-05-13T19:56:37.932Z,34.32
2019-05-13T19:59:08.949Z,34.42
2019-05-13T20:01:42.130Z,34.79
2019-05-13T20:04:12.753Z,33.99
2019-05-13T20:06:43.764Z,34.90
2019-05-13T20:09:14.872Z,35.21
2019-05-13T20:11:45.968Z,35.02
2019-05-13T20:14:17.023Z,35.02
2019-05-13T20:16:48.115Z,35.53
2019-05-13T20:19:19.236Z,35.91
2019-05-13T20:21:51.762Z,35.85
2019-05-13T20:24:23.812Z,35.94
2019-05-13T20:26:54.933Z,36.29
2019-05-13T20:29:26.164Z,36.31
2019-05-13T20:31:57.154Z,36.49
2019-05-13T20:34:28.160Z,35.56
2019-05-13T20:36:59.168Z,35.55
2019-05-13T20:39:31.940Z,35.13
2019-05-13T20:42:03.009Z,35.26
2019-05-13T20:44:34.114Z,35.21
2019-05-13T20:47:05.176Z,35.74
2019-05-13T20:49:36.187Z,35.74
2019-05-13T20:52:07.315Z,35.89
2019-05-13T20:54:38.319Z,35.68
2019-05-13T20:57:09.394Z,35.72
2019-05-13T20:59:41.387Z,35.57
2019-05-13T21:02:12.889Z,35.88
2019-05-13T21:04:43.917Z,35.97
2019-05-13T21:07:15.082Z,35.53
2019-05-13T21:09:46.118Z,35.76
2019-05-13T21:12:17.137Z,36.05
2019-05-13T21:14:48.148Z,36.48
2019-05-13T21:17:21.247Z,36.26
2019-05-13T21:19:52.834Z,36.64
2019-05-13T21:22:23.976Z,36.47
2019-05-13T21:24:55.099Z,36.51
2019-05-13T21:27:26.098Z,36.90
2019-05-13T21:29:57.087Z,36.70
2019-05-13T21:32:28.157Z,36.90
2019-05-13T21:35:01.623Z,37.41
2019-05-13T21:37:31.977Z,37.41
2019-05-13T21:40:03.836Z,37.58
2019-05-13T21:42:34.860Z,37.80
2019-05-13T21:45:06.247Z,37.24
2019-05-13T21:47:37.442Z,37.59
2019-05-13T21:50:11.486Z,37.40
2019-05-13T21:52:42.164Z,37.29
2019-05-13T21:55:13.326Z,37.15
2019-05-13T21:57:44.328Z,36.99
2019-05-13T22:00:23.528Z,37.13
2019-05-13T22:02:54.057Z,37.54
2019-05-13T22:05:25.423Z,37.36
2019-05-13T22:07:56.601Z,36.93
2019-05-13T22:10:27.691Z,37.46
2019-05-13T22:13:01.268Z,37.25
2019-05-13T22:15:32.286Z,37.76
2019-05-13T22:18:03.386Z,38.03
2019-05-13T22:20:47.421Z,37.56
2019-05-13T22:23:07.169Z,37.33
2019-05-13T22:25:38.317Z,37.11
2019-05-13T22:28:11.640Z,37.06
2019-05-13T22:30:42.053Z,37.05
2019-05-13T22:33:13.068Z,37.15
2019-05-13T22:35:44.072Z,37.48
2019-05-13T22:38:15.089Z,37.57
2019-05-13T22:40:46.084Z,38.02
2019-05-13T22:43:17.390Z,37.51
2019-05-13T22:45:48.385Z,37.96
2019-05-13T22:48:19.390Z,38.45
2019-05-13T22:50:52.147Z,38.10
2019-05-13T22:53:24.181Z,38.49
2019-05-13T22:55:55.187Z,38.14
2019-05-13T22:58:26.272Z,38.10
2019-05-13T23:00:57.353Z,38.01
2019-05-13T23:03:28.435Z,38.46
2019-05-13T23:06:01.575Z,38.85
2019-05-13T23:08:32.881Z,39.14
2019-05-13T23:11:03.892Z,39.35
2019-05-13T23:13:34.901Z,39.55
2019-05-13T23:16:06.058Z,39.63
2019-05-13T23:18:37.082Z,39.90
2019-05-13T23:21:08.079Z,40.20
2019-05-13T23:23:39.154Z,40.32
2019-05-13T23:26:11.899Z,40.46
2019-05-13T23:28:43.952Z,40.55
2019-05-13T23:31:14.944Z,40.55
2019-05-13T23:33:45.944Z,40.92
2019-05-13T23:36:17.616Z,41.16
2019-05-13T23:38:48.629Z,41.26
2019-05-13T23:41:21.645Z,41.72
2019-05-13T23:43:52.416Z,41.48
2019-05-13T23:46:24.394Z,41.55
2019-05-13T23:49:07.868Z,41.61
2019-05-13T23:51:41.003Z,41.54
2019-05-13T23:54:12.285Z,41.70
2019-05-13T23:56:43.370Z,41.80
2019-05-13T23:59:14.452Z,41.82
